createdAt,value
2023-06-19T00:01:59.675Z,20.32
2023-06-19T00:04:28.884Z,20.19
2023-06-19T00:06:58.370Z,20.44
2023-06-19T00:09:26.321Z,20.24
2023-06-19T00:11:55.065Z,20.52
2023-06-19T00:14:23.360Z,20.28
2023-06-19T00:16:52.543Z,20.25
2023-06-19T00:19:20.756Z,20.29
2023-06-19T00:21:48.754Z,20.03
2023-06-19T00:24:18.772Z,20.20
2023-06-19T00:26:47.262Z,20.43
2023-06-19T00:29:15.858Z,20.18
2023-06-19T00:31:43.818Z,20.38
2023-06-19T00:34:11.953Z,20.46
2023-06-19T00:36:42.105Z,20.29
2023-06-19T00:39:10.365Z,20.14
2023-06-19T00:41:41.482Z,19.97
2023-06-19T00:44:09.560Z,19.96
2023-06-19T00:46:42.811Z,20.05
2023-06-19T00:49:10.912Z,20.03
2023-06-19T00:51:40.290Z,20.13
2023-06-19T00:54:09.598Z,20.17
2023-06-19T00:56:42.295Z,20.20
2023-06-19T00:59:18.745Z,20.27
2023-06-19T01:01:47.492Z,20.32
2023-06-19T01:04:16.801Z,20.31
2023-06-19T01:06:53.707Z,20.40
2023-06-19T01:09:23.774Z,20.48
2023-06-19T01:12:00.389Z,20.48
2023-06-19T01:14:30.821Z,20.43
2023-06-19T01:16:59.726Z,20.34
2023-06-19T01:19:28.691Z,20.26
2023-06-19T01:21:56.646Z,20.19
2023-06-19T01:24:26.354Z,20.35
2023-06-19T01:26:54.832Z,20.38
2023-06-19T01:29:23.436Z,20.33
2023-06-19T01:31:57.732Z,20.40
2023-06-19T01:34:29.844Z,20.32
2023-06-19T01:36:59.289Z,20.22
2023-06-19T01:39:30.286Z,20.13
2023-06-19T01:41:59.279Z,20.26
2023-06-19T01:44:27.719Z,20.29
2023-06-19T01:46:56.397Z,20.44
2023-06-19T01:49:24.724Z,20.36
2023-06-19T01:51:52.836Z,20.18
2023-06-19T01:54:21.435Z,20.35
2023-06-19T01:56:50.905Z,20.43
2023-06-19T01:59:20.003Z,20.61
2023-06-19T02:01:48.148Z,20.66
2023-06-19T02:04:16.718Z,20.65
2023-06-19T02:06:45.260Z,20.59
2023-06-19T02:09:13.331Z,20.61
2023-06-19T02:11:41.506Z,20.71
2023-06-19T02:14:12.363Z,20.62
2023-06-19T02:16:42.595Z,20.67
2023-06-19T02:19:10.990Z,20.72
2023-06-19T02:21:39.749Z,20.89
2023-06-19T02:24:08.093Z,21.06
2023-06-19T02:26:36.562Z,20.89
2023-06-19T02:29:05.041Z,20.74
2023-06-19T02:31:34.374Z,20.34
2023-06-19T02:34:02.404Z,20.38
2023-06-19T02:36:32.016Z,20.63
2023-06-19T02:39:01.259Z,20.48
2023-06-19T02:41:29.475Z,20.53
2023-06-19T02:43:58.107Z,20.29
2023-06-19T02:46:26.286Z,20.36
2023-06-19T02:48:55.833Z,20.24
2023-06-19T02:51:24.373Z,20.42
2023-06-19T02:53:52.554Z,20.47
2023-06-19T02:56:21.044Z,20.41
2023-06-19T02:58:49.609Z,20.41
2023-06-19T03:01:17.886Z,20.48
2023-06-19T03:03:47.821Z,20.46
2023-06-19T03:06:19.217Z,20.59
2023-06-19T03:08:47.246Z,20.62
2023-06-19T03:11:15.831Z,20.58
2023-06-19T03:13:49.404Z,20.66
2023-06-19T03:16:18.075Z,20.73
2023-06-19T03:18:46.819Z,20.69
2023-06-19T03:21:17.109Z,20.90
2023-06-19T03:23:45.687Z,20.85
2023-06-19T03:26:13.646Z,20.68
2023-06-19T03:28:42.248Z,20.74
2023-06-19T03:31:10.825Z,20.86
2023-06-19T03:33:38.855Z,21.01
2023-06-19T03:36:07.891Z,20.97
2023-06-19T03:38:37.788Z,21.04
2023-06-19T03:41:05.959Z,21.04
2023-06-19T03:43:34.149Z,21.09
2023-06-19T03:46:02.807Z,21.10
2023-06-19T03:48:30.970Z,21.20
2023-06-19T03:50:59.261Z,21.42
2023-06-19T03:53:27.882Z,21.73
2023-06-19T03:55:57.524Z,21.24
2023-06-19T03:58:25.701Z,21.17
2023-06-19T04:00:54.254Z,21.27
2023-06-19T04:03:22.822Z,21.36
2023-06-19T04:05:51.050Z,21.23
2023-06-19T04:08:19.732Z,21.43
2023-06-19T04:10:47.963Z,21.60
2023-06-19T04:13:17.784Z,21.62
2023-06-19T04:15:48.597Z,21.49
2023-06-19T04:18:18.978Z,22.30
2023-06-19T04:20:47.619Z,22.40
2023-06-19T04:23:16.032Z,22.16
2023-06-19T04:25:44.802Z,21.92
2023-06-19T04:28:13.025Z,21.73
2023-06-19T04:30:44.006Z,21.69
2023-06-19T04:33:12.747Z,21.91
2023-06-19T04:35:42.068Z,21.87
2023-06-19T04:38:11.331Z,22.04
2023-06-19T04:40:39.904Z,22.24
2023-06-19T04:43:07.964Z,22.58
2023-06-19T04:45:36.116Z,23.45
2023-06-19T04:48:06.817Z,24.60
2023-06-19T04:50:34.829Z,25.66
2023-06-19T04:53:03.363Z,26.91
2023-06-19T04:55:31.726Z,26.55
2023-06-19T04:58:00.457Z,27.10
2023-06-19T05:00:29.226Z,25.82
2023-06-19T05:03:00.654Z,27.14
2023-06-19T05:05:31.281Z,26.75
2023-06-19T05:07:59.771Z,25.36
2023-06-19T05:10:28.305Z,24.81
2023-06-19T05:12:56.988Z,24.57
2023-06-19T05:15:25.061Z,24.32
2023-06-19T05:17:53.777Z,24.52
2023-06-19T05:20:22.427Z,23.88
2023-06-19T05:22:52.103Z,24.05
2023-06-19T05:25:20.819Z,25.33
2023-06-19T05:27:48.965Z,26.82
2023-06-19T05:30:17.815Z,26.52
2023-06-19T05:32:46.950Z,26.05
2023-06-19T05:35:16.737Z,25.88
2023-06-19T05:37:46.019Z,26.10
2023-06-19T05:40:16.219Z,25.97
2023-06-19T05:42:44.726Z,25.99
2023-06-19T05:45:13.725Z,25.83
2023-06-19T05:47:43.521Z,25.69
2023-06-19T05:50:12.836Z,25.68
2023-06-19T05:52:44.525Z,25.70
2023-06-19T05:55:13.564Z,25.90
2023-06-19T05:57:43.507Z,25.67
2023-06-19T06:00:15.835Z,25.79
2023-06-19T06:02:44.205Z,25.51
2023-06-19T06:05:12.317Z,25.08
2023-06-19T06:07:41.603Z,24.77
2023-06-19T06:10:10.773Z,24.60
2023-06-19T06:12:39.962Z,24.67
2023-06-19T06:15:11.048Z,24.69
2023-06-19T06:17:39.241Z,24.31
2023-06-19T06:20:13.951Z,24.47
2023-06-19T06:22:42.628Z,25.09
2023-06-19T06:25:13.851Z,24.96
2023-06-19T06:27:43.188Z,24.99
2023-06-19T06:30:14.736Z,25.02
2023-06-19T06:32:42.956Z,25.21
2023-06-19T06:35:11.911Z,26.12
2023-06-19T06:37:40.141Z,25.36
2023-06-19T06:40:12.696Z,25.50
2023-06-19T06:42:41.030Z,25.68
2023-06-19T06:45:10.500Z,25.66
2023-06-19T06:47:41.690Z,26.11
2023-06-19T06:50:11.815Z,26.80
2023-06-19T06:52:40.076Z,27.36
2023-06-19T06:55:09.256Z,28.73
2023-06-19T06:57:37.346Z,28.09
2023-06-19T07:00:08.269Z,28.91
2023-06-19T07:02:36.953Z,28.25
2023-06-19T07:05:07.289Z,28.45
2023-06-19T07:07:35.534Z,29.51
2023-06-19T07:10:05.229Z,29.13
2023-06-19T07:12:33.792Z,30.79
2023-06-19T07:15:02.829Z,30.68
2023-06-19T07:17:31.773Z,30.99
2023-06-19T07:20:00.111Z,31.70
2023-06-19T07:22:29.737Z,31.00
2023-06-19T07:24:58.422Z,32.93
2023-06-19T07:27:28.787Z,33.81
2023-06-19T07:29:57.146Z,34.63
2023-06-19T07:32:25.831Z,33.27
2023-06-19T07:34:53.992Z,35.95
2023-06-19T07:37:22.722Z,37.72
2023-06-19T07:39:54.031Z,38.16
2023-06-19T07:42:22.633Z,37.26
2023-06-19T07:44:50.937Z,35.90
2023-06-19T07:47:22.254Z,35.34
2023-06-19T07:49:50.606Z,35.86
2023-06-19T07:52:18.736Z,33.52
2023-06-19T07:54:58.114Z,32.68
2023-06-19T07:57:27.575Z,32.75
2023-06-19T07:59:57.457Z,32.71
2023-06-19T08:02:25.686Z,31.93
2023-06-19T08:04:54.857Z,31.58
2023-06-19T08:07:23.433Z,32.11
2023-06-19T08:10:00.282Z,32.00
2023-06-19T08:12:38.205Z,31.90
2023-06-19T08:15:07.185Z,31.77
2023-06-19T08:17:35.937Z,31.60
2023-06-19T08:20:06.907Z,31.72
2023-06-19T08:22:35.275Z,30.98
2023-06-19T08:25:03.351Z,31.38
2023-06-19T08:27:32.085Z,31.21
2023-06-19T08:30:01.648Z,31.06
2023-06-19T08:32:33.288Z,31.09
2023-06-19T08:35:01.462Z,30.65
2023-06-19T08:37:30.165Z,31.21
2023-06-19T08:40:01.627Z,31.91
2023-06-19T08:42:30.102Z,32.63
2023-06-19T08:44:59.040Z,32.31
2023-06-19T08:47:35.719Z,32.64
2023-06-19T08:50:05.057Z,33.09
2023-06-19T08:52:34.297Z,34.36
2023-06-19T08:55:03.356Z,33.83
2023-06-19T08:57:39.723Z,34.78
2023-06-19T09:00:12.424Z,37.40
2023-06-19T09:02:44.591Z,35.92
2023-06-19T09:05:18.105Z,36.61
2023-06-19T09:07:47.341Z,36.88
2023-06-19T09:10:20.267Z,36.62
2023-06-19T09:13:01.838Z,36.22
2023-06-19T09:15:32.419Z,35.63
2023-06-19T09:18:10.563Z,35.31
2023-06-19T09:20:45.437Z,37.76
2023-06-19T09:23:14.962Z,40.36
2023-06-19T09:25:48.351Z,40.33
2023-06-19T09:28:21.164Z,41.17
2023-06-19T09:30:58.060Z,39.87
2023-06-19T09:33:29.379Z,38.32
2023-06-19T09:35:58.856Z,37.53
2023-06-19T09:38:28.736Z,39.32
2023-06-19T09:41:02.811Z,40.08
2023-06-19T09:43:36.904Z,39.18
2023-06-19T09:46:06.764Z,38.32
2023-06-19T09:48:37.257Z,37.63
2023-06-19T09:51:13.545Z,36.97
2023-06-19T09:53:42.542Z,35.97
2023-06-19T09:56:11.948Z,35.23
2023-06-19T09:58:41.293Z,34.21
2023-06-19T10:01:09.500Z,35.02
2023-06-19T10:03:39.213Z,34.86
2023-06-19T10:06:07.668Z,34.32
2023-06-19T10:08:42.037Z,33.97
2023-06-19T10:11:10.632Z,34.41
2023-06-19T10:13:41.980Z,33.32
2023-06-19T10:16:21.970Z,33.80
2023-06-19T10:18:52.549Z,33.85
2023-06-19T10:21:21.783Z,33.97
2023-06-19T10:23:58.051Z,33.84
2023-06-19T10:26:34.231Z,34.04
2023-06-19T10:29:03.453Z,34.55
2023-06-19T10:31:33.701Z,34.84
2023-06-19T10:34:06.175Z,33.52
2023-06-19T10:36:34.504Z,34.33
2023-06-19T10:39:03.767Z,34.67
2023-06-19T10:41:33.224Z,35.45
2023-06-19T10:44:03.024Z,35.50
2023-06-19T10:46:33.770Z,35.53
2023-06-19T10:49:05.928Z,37.56
2023-06-19T10:51:38.618Z,38.90
2023-06-19T10:54:08.329Z,39.79
2023-06-19T10:56:37.313Z,38.48
2023-06-19T10:59:07.693Z,38.43
2023-06-19T11:01:38.276Z,38.60
2023-06-19T11:04:09.692Z,38.79
2023-06-19T11:06:40.296Z,38.78
2023-06-19T11:09:10.171Z,38.43
2023-06-19T11:11:40.491Z,37.15
2023-06-19T11:14:09.520Z,38.50
2023-06-19T11:16:41.894Z,35.96
2023-06-19T11:19:12.109Z,38.46
2023-06-19T11:21:40.373Z,38.22
2023-06-19T11:24:14.829Z,37.72
2023-06-19T11:26:45.436Z,37.04
2023-06-19T11:29:18.401Z,36.78
2023-06-19T11:31:48.185Z,37.42
2023-06-19T11:34:23.398Z,36.84
2023-06-19T11:36:53.159Z,37.10
2023-06-19T11:39:22.841Z,37.27
2023-06-19T11:41:52.704Z,38.41
2023-06-19T11:44:22.611Z,38.74
2023-06-19T11:46:50.849Z,38.08
2023-06-19T11:49:20.901Z,37.46
2023-06-19T11:51:49.811Z,36.55
2023-06-19T11:54:18.971Z,36.75
2023-06-19T11:56:49.360Z,35.77
2023-06-19T11:59:17.575Z,34.90
2023-06-19T12:01:45.753Z,34.32
2023-06-19T12:04:15.503Z,34.27
2023-06-19T12:06:45.913Z,34.63
2023-06-19T12:09:14.085Z,35.56
2023-06-19T12:11:42.776Z,35.62
2023-06-19T12:14:11.224Z,35.63
2023-06-19T12:16:39.285Z,35.82
2023-06-19T12:19:08.518Z,35.25
2023-06-19T12:21:40.315Z,34.89
2023-06-19T12:24:12.138Z,34.94
2023-06-19T12:26:41.179Z,35.79
2023-06-19T12:29:09.419Z,35.48
2023-06-19T12:31:38.724Z,35.21
2023-06-19T12:34:21.174Z,34.98
2023-06-19T12:36:56.152Z,34.87
2023-06-19T12:39:26.353Z,34.21
2023-06-19T12:41:54.625Z,34.80
2023-06-19T12:44:26.082Z,35.05
2023-06-19T12:46:54.836Z,33.93
2023-06-19T12:49:23.127Z,33.29
2023-06-19T12:51:53.632Z,33.59
2023-06-19T12:54:22.227Z,34.22
2023-06-19T12:56:52.447Z,33.69
2023-06-19T12:59:21.444Z,33.91
2023-06-19T13:01:49.727Z,33.93
2023-06-19T13:04:18.133Z,33.65
2023-06-19T13:06:46.900Z,33.26
2023-06-19T13:09:15.204Z,33.10
2023-06-19T13:11:43.330Z,33.00
2023-06-19T13:14:13.409Z,33.25
2023-06-19T13:16:46.808Z,33.20
2023-06-19T13:19:18.844Z,33.50
2023-06-19T13:21:47.282Z,33.55
2023-06-19T13:24:15.500Z,33.61
2023-06-19T13:26:44.116Z,33.45
2023-06-19T13:29:14.195Z,33.25
2023-06-19T13:31:45.147Z,33.51
2023-06-19T13:34:13.403Z,33.33
2023-06-19T13:36:42.015Z,33.58
2023-06-19T13:39:10.754Z,33.76
2023-06-19T13:41:39.351Z,33.32
2023-06-19T13:44:07.651Z,33.30
2023-06-19T13:46:37.669Z,33.25
2023-06-19T13:49:05.803Z,34.23
2023-06-19T13:51:34.513Z,33.72
2023-06-19T13:54:04.951Z,33.90
2023-06-19T13:56:33.393Z,33.78
2023-06-19T13:59:01.431Z,33.73
2023-06-19T14:01:30.253Z,34.13
2023-06-19T14:04:00.498Z,33.80
2023-06-19T14:06:28.591Z,33.57
2023-06-19T14:08:57.414Z,33.61
2023-06-19T14:11:25.964Z,33.20
2023-06-19T14:13:54.545Z,33.84
2023-06-19T14:16:23.531Z,33.79
2023-06-19T14:18:51.886Z,33.78
2023-06-19T14:21:23.478Z,33.35
2023-06-19T14:23:51.774Z,33.25
2023-06-19T14:26:20.115Z,32.86
2023-06-19T14:28:49.005Z,33.36
2023-06-19T14:31:17.436Z,33.59
2023-06-19T14:33:45.577Z,33.88
2023-06-19T14:36:14.170Z,33.66
2023-06-19T14:38:44.058Z,33.33
2023-06-19T14:41:12.135Z,33.57
2023-06-19T14:43:40.693Z,34.00
2023-06-19T14:46:09.088Z,33.92
2023-06-19T14:48:37.538Z,34.13
2023-06-19T14:51:06.776Z,34.04
2023-06-19T14:53:34.974Z,34.17
2023-06-19T14:56:04.738Z,34.21
2023-06-19T14:58:32.846Z,34.18
2023-06-19T15:01:01.151Z,33.60
2023-06-19T15:03:29.421Z,33.66
2023-06-19T15:05:58.820Z,33.94
2023-06-19T15:08:28.002Z,33.77
2023-06-19T15:10:56.196Z,34.06
2023-06-19T15:13:26.285Z,34.38
2023-06-19T15:15:54.345Z,34.12
2023-06-19T15:18:23.397Z,34.26
2023-06-19T15:20:52.212Z,34.56
2023-06-19T15:23:20.526Z,34.24
2023-06-19T15:25:50.205Z,33.94
2023-06-19T15:28:19.772Z,34.33
2023-06-19T15:30:49.536Z,34.30
2023-06-19T15:33:19.244Z,34.00
2023-06-19T15:35:48.727Z,33.87
2023-06-19T15:38:16.943Z,34.39
2023-06-19T15:40:45.862Z,33.87
2023-06-19T15:43:14.278Z,34.39
2023-06-19T15:45:42.714Z,33.71
2023-06-19T15:48:12.781Z,33.73
2023-06-19T15:50:41.877Z,33.40
2023-06-19T15:53:10.760Z,32.96
2023-06-19T15:55:39.559Z,33.44
2023-06-19T15:58:07.850Z,33.14
2023-06-19T16:00:36.031Z,32.73
2023-06-19T16:03:05.860Z,32.67
2023-06-19T16:05:35.754Z,32.50
2023-06-19T16:08:04.302Z,33.18
2023-06-19T16:10:33.112Z,33.05
2023-06-19T16:13:01.300Z,32.50
2023-06-19T16:15:30.038Z,32.30
2023-06-19T16:17:58.706Z,32.26
2023-06-19T16:20:28.773Z,32.27
2023-06-19T16:22:59.506Z,32.14
2023-06-19T16:25:27.874Z,32.29
2023-06-19T16:27:58.739Z,32.26
2023-06-19T16:30:28.104Z,32.54
2023-06-19T16:32:56.976Z,32.29
2023-06-19T16:35:25.656Z,32.12
2023-06-19T16:37:55.734Z,32.20
2023-06-19T16:40:27.203Z,32.20
2023-06-19T16:42:56.232Z,31.86
2023-06-19T16:45:28.114Z,32.25
2023-06-19T16:47:56.871Z,32.10
2023-06-19T16:50:25.590Z,32.12
2023-06-19T16:52:54.805Z,31.87
2023-06-19T16:55:25.646Z,32.15
2023-06-19T16:57:54.029Z,31.76
2023-06-19T17:00:23.116Z,31.81
2023-06-19T17:02:56.147Z,31.71
2023-06-19T17:05:25.924Z,31.32
2023-06-19T17:07:53.987Z,31.40
2023-06-19T17:10:24.096Z,31.27
2023-06-19T17:12:55.069Z,31.38
2023-06-19T17:15:23.231Z,31.40
2023-06-19T17:17:51.875Z,31.21
2023-06-19T17:20:20.795Z,31.11
2023-06-19T17:22:49.302Z,31.24
2023-06-19T17:25:18.034Z,31.32
2023-06-19T17:27:46.649Z,31.25
2023-06-19T17:30:16.345Z,31.05
2023-06-19T17:32:47.012Z,30.81
2023-06-19T17:35:15.161Z,31.06
2023-06-19T17:37:44.182Z,30.93
2023-06-19T17:40:14.588Z,30.98
2023-06-19T17:42:43.037Z,31.00
2023-06-19T17:45:12.392Z,30.92
2023-06-19T17:47:42.608Z,30.84
2023-06-19T17:50:12.803Z,31.17
2023-06-19T17:52:41.196Z,30.80
2023-06-19T17:55:10.871Z,30.78
2023-06-19T17:57:41.927Z,30.45
2023-06-19T18:00:11.966Z,30.39
2023-06-19T18:02:41.536Z,30.20
2023-06-19T18:05:09.942Z,30.22
2023-06-19T18:07:38.630Z,30.21
2023-06-19T18:10:07.946Z,30.25
2023-06-19T18:12:36.940Z,30.07
2023-06-19T18:15:05.931Z,30.01
2023-06-19T18:17:34.160Z,30.08
2023-06-19T18:20:03.896Z,29.99
2023-06-19T18:22:32.409Z,29.78
2023-06-19T18:25:00.361Z,29.65
2023-06-19T18:27:28.852Z,29.54
2023-06-19T18:29:57.512Z,29.64
2023-06-19T18:32:25.769Z,29.45
2023-06-19T18:34:55.168Z,29.35
2023-06-19T18:37:25.307Z,29.23
2023-06-19T18:39:54.103Z,29.14
2023-06-19T18:42:22.285Z,29.13
2023-06-19T18:44:50.992Z,29.11
2023-06-19T18:47:18.990Z,29.15
2023-06-19T18:49:46.995Z,28.94
2023-06-19T18:52:15.185Z,28.86
2023-06-19T18:54:44.601Z,28.66
2023-06-19T18:57:13.264Z,28.68
2023-06-19T18:59:41.367Z,28.53
2023-06-19T19:02:11.892Z,28.50
2023-06-19T19:04:43.440Z,28.46
2023-06-19T19:07:11.521Z,28.36
2023-06-19T19:09:39.785Z,28.31
2023-06-19T19:12:11.920Z,28.19
2023-06-19T19:14:42.407Z,28.10
2023-06-19T19:17:10.902Z,27.99
2023-06-19T19:19:39.471Z,27.91
2023-06-19T19:22:07.615Z,27.77
2023-06-19T19:24:36.228Z,27.52
2023-06-19T19:27:04.797Z,27.42
2023-06-19T19:29:34.732Z,27.28
2023-06-19T19:32:03.264Z,27.21
2023-06-19T19:34:31.359Z,27.08
2023-06-19T19:36:59.523Z,27.03
2023-06-19T19:39:28.161Z,26.96
2023-06-19T19:41:56.268Z,26.74
2023-06-19T19:44:24.534Z,26.59
2023-06-19T19:46:55.282Z,26.57
2023-06-19T19:49:23.463Z,26.41
2023-06-19T19:51:51.600Z,26.21
2023-06-19T19:54:20.126Z,26.27
2023-06-19T19:56:48.322Z,26.10
2023-06-19T19:59:16.462Z,26.13
2023-06-19T20:01:45.153Z,26.08
2023-06-19T20:04:17.303Z,25.92
2023-06-19T20:06:46.429Z,25.85
2023-06-19T20:09:15.117Z,25.84
2023-06-19T20:11:43.347Z,25.76
2023-06-19T20:14:12.344Z,25.68
2023-06-19T20:16:40.568Z,25.59
2023-06-19T20:19:08.764Z,25.53
2023-06-19T20:21:39.037Z,25.42
2023-06-19T20:24:07.558Z,25.38
2023-06-19T20:26:35.649Z,25.38
2023-06-19T20:29:03.821Z,25.26
2023-06-19T20:31:32.494Z,25.23
2023-06-19T20:34:00.634Z,25.00
2023-06-19T20:36:29.285Z,24.86
2023-06-19T20:38:58.889Z,24.73
2023-06-19T20:41:27.922Z,24.68
2023-06-19T20:43:56.183Z,24.69
2023-06-19T20:46:24.569Z,24.48
2023-06-19T20:48:53.045Z,24.55
2023-06-19T20:51:21.996Z,24.54
2023-06-19T20:53:50.220Z,24.58
2023-06-19T20:56:20.029Z,24.48
2023-06-19T20:58:47.974Z,24.45
2023-06-19T21:01:16.307Z,24.47
2023-06-19T21:03:44.852Z,24.37
2023-06-19T21:06:13.107Z,24.21
2023-06-19T21:08:41.099Z,24.19
2023-06-19T21:11:09.553Z,24.13
2023-06-19T21:13:39.062Z,24.04
2023-06-19T21:16:07.238Z,24.06
2023-06-19T21:18:35.749Z,23.94
2023-06-19T21:21:03.767Z,23.91
2023-06-19T21:23:31.797Z,23.90
2023-06-19T21:26:00.290Z,23.91
2023-06-19T21:28:29.275Z,23.85
2023-06-19T21:30:58.660Z,23.88
2023-06-19T21:33:32.851Z,23.93
2023-06-19T21:36:00.866Z,23.88
2023-06-19T21:38:28.987Z,23.92
2023-06-19T21:40:57.692Z,23.96
2023-06-19T21:43:25.897Z,24.13
2023-06-19T21:45:55.138Z,23.86
2023-06-19T21:48:26.303Z,23.98
2023-06-19T21:50:54.878Z,23.95
2023-06-19T21:53:23.195Z,24.02
2023-06-19T21:55:51.796Z,24.08
2023-06-19T21:58:23.030Z,24.09
2023-06-19T22:00:51.552Z,24.01
2023-06-19T22:03:19.854Z,24.01
2023-06-19T22:05:49.907Z,23.85
2023-06-19T22:08:24.463Z,23.81
2023-06-19T22:11:02.603Z,23.97
2023-06-19T22:13:32.619Z,23.81
2023-06-19T22:16:00.934Z,23.66
2023-06-19T22:18:29.462Z,23.72
2023-06-19T22:20:58.963Z,23.58
2023-06-19T22:23:27.987Z,23.70
2023-06-19T22:25:56.679Z,23.66
2023-06-19T22:28:25.077Z,23.46
2023-06-19T22:30:53.067Z,23.57
2023-06-19T22:33:21.321Z,23.53
2023-06-19T22:35:50.393Z,23.49
2023-06-19T22:38:19.823Z,23.62
2023-06-19T22:40:48.313Z,23.43
2023-06-19T22:43:16.558Z,23.41
2023-06-19T22:45:44.883Z,23.27
2023-06-19T22:48:13.520Z,23.27
2023-06-19T22:50:41.595Z,23.16
2023-06-19T22:53:09.626Z,23.05
2023-06-19T22:55:39.439Z,22.98
2023-06-19T22:58:07.601Z,23.10
2023-06-19T23:00:36.249Z,23.07
2023-06-19T23:03:07.159Z,23.08
2023-06-19T23:05:35.533Z,23.15
2023-06-19T23:08:03.645Z,23.16
2023-06-19T23:10:32.168Z,23.00
2023-06-19T23:13:01.677Z,22.80
2023-06-19T23:15:29.841Z,22.65
2023-06-19T23:17:58.824Z,22.52
2023-06-19T23:20:27.014Z,22.43
2023-06-19T23:22:55.094Z,22.49
2023-06-19T23:25:25.617Z,22.56
2023-06-19T23:27:53.984Z,22.56
2023-06-19T23:30:24.394Z,22.48
2023-06-19T23:32:53.012Z,22.27
2023-06-19T23:35:24.101Z,22.21
2023-06-19T23:37:54.578Z,22.10
2023-06-19T23:40:22.633Z,22.01
2023-06-19T23:42:51.182Z,21.96
2023-06-19T23:45:19.210Z,21.94
2023-06-19T23:47:48.962Z,21.96
2023-06-19T23:50:18.280Z,21.94
2023-06-19T23:52:47.250Z,21.83
2023-06-19T23:55:15.608Z,21.84
2023-06-19T23:57:45.599Z,21.61
